createdAt,value
2019-05-04T00:02:02.000Z,93.00
2019-05-04T00:04:29.962Z,93.10
2019-05-04T00:06:56.045Z,93.20
2019-05-04T00:09:22.110Z,93.30
2019-05-04T00:11:48.170Z,93.40
2019-05-04T00:14:15.522Z,93.50
2019-05-04T00:16:41.792Z,93.60
2019-05-04T00:19:08.011Z,93.70
2019-05-04T00:21:34.717Z,93.70
2019-05-04T00:24:01.132Z,93.80
2019-05-04T00:26:27.286Z,93.80
2019-05-04T00:28:54.900Z,93.90
2019-05-04T00:31:21.208Z,94.00
2019-05-04T00:33:51.955Z,94.00
2019-05-04T00:36:36.843Z,94.10
2019-05-04T00:39:19.495Z,94.20
2019-05-04T00:41:45.543Z,94.10
2019-05-04T00:44:11.917Z,94.10
2019-05-04T00:46:38.082Z,94.20
2019-05-04T00:49:04.908Z,94.30
2019-05-04T00:51:31.156Z,94.30
2019-05-04T00:53:57.233Z,94.60
2019-05-04T00:56:25.263Z,94.70
2019-05-04T00:58:52.708Z,94.70
2019-05-04T01:01:36.098Z,94.70
2019-05-04T01:04:02.285Z,94.80
2019-05-04T01:06:28.366Z,94.70
2019-05-04T01:08:55.032Z,94.80
2019-05-04T01:11:21.288Z,94.80
2019-05-04T01:13:47.388Z,94.80
2019-05-04T01:16:14.457Z,95.10
2019-05-04T01:18:40.708Z,94.90
2019-05-04T01:21:06.912Z,94.90
2019-05-04T01:23:32.976Z,94.90
2019-05-04T01:25:59.053Z,94.90
2019-05-04T01:28:25.103Z,94.90
2019-05-04T01:30:51.165Z,95.10
2019-05-04T01:33:17.283Z,95.10
2019-05-04T01:35:45.380Z,95.20
2019-05-04T01:38:25.456Z,95.30
2019-05-04T01:40:55.181Z,95.30
2019-05-04T01:43:21.403Z,95.30
2019-05-04T01:45:47.477Z,95.40
2019-05-04T01:48:15.256Z,95.40
2019-05-04T01:50:41.613Z,95.40
2019-05-04T01:53:14.802Z,95.50
2019-05-04T01:55:40.663Z,95.50
2019-05-04T01:58:08.633Z,95.50
2019-05-04T02:00:45.676Z,95.90
2019-05-04T02:03:11.848Z,95.80
2019-05-04T02:05:37.917Z,95.70
2019-05-04T02:08:05.257Z,95.70
2019-05-04T02:10:31.539Z,95.70
2019-05-04T02:12:57.612Z,95.80
2019-05-04T02:15:25.598Z,95.80
2019-05-04T02:17:51.645Z,95.90
2019-05-04T02:20:17.704Z,95.90
2019-05-04T02:22:45.672Z,95.90
2019-05-04T02:25:30.289Z,95.90
2019-05-04T02:27:58.296Z,96.00
2019-05-04T02:30:41.156Z,95.90
2019-05-04T02:33:07.224Z,95.90
2019-05-04T02:35:35.574Z,96.20
2019-05-04T02:38:08.755Z,95.90
2019-05-04T02:40:41.668Z,96.00
2019-05-04T02:42:59.290Z,96.00
2019-05-04T02:45:26.488Z,95.90
2019-05-04T02:48:06.803Z,95.90
2019-05-04T02:50:36.496Z,95.90
2019-05-04T02:53:05.182Z,95.90
2019-05-04T02:55:30.602Z,95.90
2019-05-04T02:57:56.683Z,95.90
2019-05-04T03:00:22.749Z,96.30
2019-05-04T03:02:48.832Z,96.10
2019-05-04T03:05:15.807Z,97.20
2019-05-04T03:07:42.140Z,97.40
2019-05-04T03:10:08.801Z,96.80
2019-05-04T03:12:35.876Z,96.60
2019-05-04T03:15:05.474Z,96.50
2019-05-04T03:17:35.443Z,96.30
2019-05-04T03:20:21.943Z,96.20
2019-05-04T03:22:50.089Z,96.10
2019-05-04T03:25:16.354Z,96.00
2019-05-04T03:27:45.148Z,96.00
2019-05-04T03:30:18.131Z,96.00
2019-05-04T03:32:40.823Z,96.00
2019-05-04T03:35:24.433Z,95.90
2019-05-04T03:37:35.815Z,95.90
2019-05-04T03:40:05.687Z,96.00
2019-05-04T03:42:32.030Z,96.10
2019-05-04T03:45:00.112Z,96.00
2019-05-04T03:47:28.176Z,96.10
2019-05-04T03:49:56.141Z,96.10
2019-05-04T03:52:36.336Z,96.20
2019-05-04T03:55:07.671Z,96.30
2019-05-04T03:57:35.722Z,96.30
2019-05-04T04:00:08.890Z,96.30
2019-05-04T04:02:37.627Z,96.30
2019-05-04T04:05:06.061Z,96.40
2019-05-04T04:07:32.283Z,96.40
2019-05-04T04:09:58.362Z,96.40
2019-05-04T04:12:25.178Z,96.40
2019-05-04T04:14:51.403Z,96.50
2019-05-04T04:17:25.376Z,96.50
2019-05-04T04:19:51.568Z,96.50
2019-05-04T04:22:18.037Z,96.50
2019-05-04T04:24:45.993Z,96.60
2019-05-04T04:27:15.635Z,96.60
2019-05-04T04:29:41.996Z,96.60
2019-05-04T04:32:09.333Z,96.60
2019-05-04T04:34:35.771Z,96.60
2019-05-04T04:37:02.171Z,96.70
2019-05-04T04:39:34.681Z,96.80
2019-05-04T04:41:56.420Z,96.80
2019-05-04T04:44:22.552Z,96.90
2019-05-04T04:46:48.635Z,96.90
2019-05-04T04:49:15.685Z,97.00
2019-05-04T04:51:42.071Z,97.10
2019-05-04T04:54:08.138Z,97.50
2019-05-04T04:56:36.128Z,97.30
2019-05-04T04:59:09.911Z,97.30
2019-05-04T05:01:37.885Z,97.50
2019-05-04T05:04:05.991Z,97.60
2019-05-04T05:06:31.953Z,97.60
2019-05-04T05:08:58.063Z,97.60
2019-05-04T05:11:25.789Z,97.60
2019-05-04T05:13:52.117Z,97.70
2019-05-04T05:16:18.175Z,97.90
2019-05-04T05:18:44.892Z,97.80
2019-05-04T05:21:19.135Z,98.00
2019-05-04T05:23:45.386Z,97.90
2019-05-04T05:26:11.577Z,98.00
2019-05-04T05:28:37.646Z,98.00
2019-05-04T05:31:08.364Z,98.10
2019-05-04T05:33:39.609Z,98.20
2019-05-04T05:36:15.235Z,98.20
2019-05-04T05:38:45.309Z,98.10
2019-05-04T05:41:11.863Z,98.30
2019-05-04T05:43:39.199Z,98.80
2019-05-04T05:46:15.159Z,98.60
2019-05-04T05:48:44.005Z,98.70
2019-05-04T05:51:21.345Z,98.70
2019-05-04T05:54:04.714Z,98.70
2019-05-04T05:56:38.417Z,98.60
2019-05-04T05:59:25.040Z,98.60
2019-05-04T06:02:00.313Z,98.50
2019-05-04T06:04:44.511Z,98.50
2019-05-04T06:07:14.359Z,98.90
2019-05-04T06:09:40.576Z,98.80
2019-05-04T06:12:10.990Z,98.70
2019-05-04T06:14:44.785Z,98.70
2019-05-04T06:17:15.969Z,98.80
2019-05-04T06:19:53.128Z,98.70
2019-05-04T06:22:21.139Z,98.80
2019-05-04T06:24:55.425Z,99.10
2019-05-04T06:27:28.309Z,99.10
2019-05-04T06:29:56.452Z,99.20
2019-05-04T06:32:30.738Z,98.70
2019-05-04T06:35:01.728Z,99.20
2019-05-04T06:37:35.528Z,99.30
2019-05-04T06:40:11.949Z,98.80
2019-05-04T06:42:35.899Z,99.90
2019-05-04T06:45:14.455Z,99.90
2019-05-04T06:47:43.613Z,99.30
2019-05-04T06:50:15.416Z,99.00
2019-05-04T06:52:44.878Z,99.00
2019-05-04T06:55:17.749Z,98.90
2019-05-04T06:58:04.084Z,98.80
2019-05-04T07:00:31.002Z,98.70
2019-05-04T07:02:58.207Z,98.40
2019-05-04T07:05:24.379Z,98.30
2019-05-04T07:07:52.601Z,98.20
2019-05-04T07:10:18.438Z,98.10
2019-05-04T07:12:45.543Z,98.10
2019-05-04T07:15:15.531Z,98.00
2019-05-04T07:17:40.056Z,98.30
2019-05-04T07:20:06.232Z,98.10
2019-05-04T07:22:36.717Z,98.00
2019-05-04T07:25:00.275Z,97.80
2019-05-04T07:27:26.335Z,97.90
2019-05-04T07:29:52.811Z,98.00
2019-05-04T07:32:20.443Z,98.20
2019-05-04T07:34:49.471Z,98.10
2019-05-04T07:37:45.794Z,97.80
2019-05-04T07:40:10.142Z,97.90
2019-05-04T07:42:36.947Z,97.60
2019-05-04T07:45:05.439Z,97.50
2019-05-04T07:47:31.506Z,97.60
2019-05-04T07:49:57.620Z,97.40
2019-05-04T07:52:27.907Z,97.40
2019-05-04T07:54:51.885Z,97.30
2019-05-04T07:57:19.395Z,97.30
2019-05-04T07:59:46.029Z,97.40
2019-05-04T08:02:12.378Z,97.30
2019-05-04T08:04:39.821Z,97.30
2019-05-04T08:07:06.640Z,97.10
2019-05-04T08:09:32.824Z,97.50
2019-05-04T08:12:10.001Z,97.50
2019-05-04T08:14:36.206Z,97.40
2019-05-04T08:17:04.584Z,97.40
2019-05-04T08:19:36.301Z,97.40
2019-05-04T08:21:59.071Z,97.30
2019-05-04T08:24:31.008Z,97.20
2019-05-04T08:26:53.121Z,96.90
2019-05-04T08:29:23.291Z,97.10
2019-05-04T08:31:47.173Z,97.10
2019-05-04T08:34:14.273Z,97.20
2019-05-04T08:36:46.351Z,97.10
2019-05-04T08:39:08.522Z,96.80
2019-05-04T08:41:41.477Z,96.90
2019-05-04T08:44:11.845Z,97.00
2019-05-04T08:46:38.239Z,97.00
2019-05-04T08:49:00.523Z,97.00
2019-05-04T08:51:42.932Z,96.70
2019-05-04T08:54:02.892Z,96.90
2019-05-04T08:56:30.896Z,96.60
2019-05-04T08:59:04.617Z,96.00
2019-05-04T09:01:35.443Z,96.20
2019-05-04T09:04:01.628Z,96.20
2019-05-04T09:06:35.240Z,96.30
2019-05-04T09:09:06.550Z,94.50
2019-05-04T09:11:25.042Z,95.80
2019-05-04T09:13:51.312Z,95.90
2019-05-04T09:16:17.372Z,95.90
2019-05-04T09:18:44.773Z,95.90
2019-05-04T09:21:16.076Z,95.20
2019-05-04T09:23:39.093Z,95.50
2019-05-04T09:26:08.508Z,94.40
2019-05-04T09:28:34.358Z,94.00
2019-05-04T09:31:02.195Z,93.80
2019-05-04T09:33:32.869Z,95.00
2019-05-04T09:36:04.679Z,98.50
2019-05-04T09:38:32.387Z,98.50
2019-05-04T09:40:57.765Z,97.00
2019-05-04T09:43:27.398Z,96.70
2019-05-04T09:45:54.983Z,95.10
2019-05-04T09:48:20.839Z,95.10
2019-05-04T09:50:48.222Z,96.70
2019-05-04T09:53:22.426Z,98.60
2019-05-04T09:55:50.361Z,99.20
2019-05-04T09:58:24.564Z,98.80
2019-05-04T10:00:46.971Z,99.90
2019-05-04T10:03:15.293Z,99.60
2019-05-04T10:05:41.208Z,99.90
2019-05-04T10:08:07.371Z,99.90
2019-05-04T10:10:35.213Z,99.90
2019-05-04T10:13:05.022Z,99.90
2019-05-04T10:15:48.535Z,99.20
2019-05-04T10:18:14.715Z,99.40
2019-05-04T10:20:40.876Z,99.20
2019-05-04T10:23:06.944Z,99.00
2019-05-04T10:25:33.067Z,99.50
2019-05-04T10:27:59.145Z,99.30
2019-05-04T10:30:25.287Z,97.70
2019-05-04T10:32:51.349Z,96.20
2019-05-04T10:35:17.528Z,96.60
2019-05-04T10:37:44.978Z,97.00
2019-05-04T10:40:11.462Z,96.60
2019-05-04T10:42:37.582Z,97.90
2019-05-04T10:45:04.958Z,98.60
2019-05-04T10:47:31.205Z,98.20
2019-05-04T10:49:57.276Z,98.80
2019-05-04T10:52:23.366Z,99.40
2019-05-04T10:54:49.540Z,99.00
2019-05-04T10:57:15.608Z,99.10
2019-05-04T10:59:41.803Z,99.70
2019-05-04T11:02:08.051Z,98.90
2019-05-04T11:04:35.790Z,98.80
2019-05-04T11:07:01.987Z,97.00
2019-05-04T11:09:28.060Z,97.30
2019-05-04T11:11:54.568Z,97.80
2019-05-04T11:14:20.812Z,97.80
2019-05-04T11:16:46.889Z,96.40
2019-05-04T11:19:15.120Z,97.30
2019-05-04T11:21:41.032Z,97.40
2019-05-04T11:24:07.096Z,96.90
2019-05-04T11:26:40.875Z,95.80
2019-05-04T11:29:06.999Z,96.90
2019-05-04T11:31:34.910Z,97.10
2019-05-04T11:34:01.047Z,97.30
2019-05-04T11:36:27.132Z,97.10
2019-05-04T11:38:55.016Z,96.60
2019-05-04T11:41:21.183Z,96.10
2019-05-04T11:43:47.245Z,95.90
2019-05-04T11:46:14.392Z,95.80
2019-05-04T11:48:40.772Z,94.60
2019-05-04T11:51:06.928Z,95.10
2019-05-04T11:53:34.911Z,95.20
2019-05-04T11:56:00.993Z,93.70
2019-05-04T11:58:27.065Z,93.40
2019-05-04T12:00:54.218Z,94.50
2019-05-04T12:03:20.506Z,95.00
2019-05-04T12:05:48.460Z,94.80
2019-05-04T12:08:25.516Z,95.50
2019-05-04T12:10:56.289Z,95.90
2019-05-04T12:13:24.180Z,96.20
2019-05-04T12:15:50.423Z,96.30
2019-05-04T12:18:16.476Z,96.40
2019-05-04T12:20:42.544Z,95.70
2019-05-04T12:23:08.660Z,93.10
2019-05-04T12:25:34.826Z,94.70
2019-05-04T12:28:00.975Z,95.60
2019-05-04T12:30:27.068Z,96.90
2019-05-04T12:32:54.608Z,97.80
2019-05-04T12:35:20.926Z,98.70
2019-05-04T12:37:47.004Z,99.40
2019-05-04T12:40:15.265Z,99.30
2019-05-04T12:42:44.063Z,99.90
2019-05-04T12:45:14.862Z,99.70
2019-05-04T12:47:41.330Z,99.80
2019-05-04T12:50:08.639Z,99.90
2019-05-04T12:52:44.789Z,99.90
2019-05-04T12:55:15.594Z,99.90
2019-05-04T12:57:44.440Z,99.90
2019-05-04T13:00:15.051Z,99.90
2019-05-04T13:02:45.846Z,99.90
2019-05-04T13:05:27.860Z,99.90
2019-05-04T13:07:47.400Z,99.90
2019-05-04T13:10:16.911Z,99.90
2019-05-04T13:12:45.546Z,99.90
2019-05-04T13:15:15.457Z,99.90
2019-05-04T13:17:45.051Z,99.90
2019-05-04T13:20:24.575Z,99.90
2019-05-04T13:22:56.845Z,99.90
2019-05-04T13:25:24.182Z,99.90
2019-05-04T13:27:55.649Z,99.90
2019-05-04T13:30:31.504Z,99.90
2019-05-04T13:33:00.064Z,99.90
2019-05-04T13:35:34.736Z,99.90
2019-05-04T13:38:05.057Z,99.90
2019-05-04T13:40:36.632Z,99.90
2019-05-04T13:43:06.658Z,99.90
2019-05-04T13:45:34.619Z,99.90
2019-05-04T13:48:15.402Z,99.90
2019-05-04T13:50:42.308Z,99.90
2019-05-04T13:53:09.364Z,99.90
2019-05-04T13:55:47.132Z,99.90
2019-05-04T13:58:24.734Z,99.90
2019-05-04T14:01:11.153Z,99.90
2019-05-04T14:03:56.021Z,99.90
2019-05-04T14:06:35.344Z,99.90
2019-05-04T14:09:04.990Z,99.90
2019-05-04T14:11:31.779Z,99.90
2019-05-04T14:14:00.565Z,99.90
2019-05-04T14:16:34.468Z,99.90
2019-05-04T14:19:01.578Z,99.80
2019-05-04T14:21:37.052Z,99.90
2019-05-04T14:24:04.653Z,99.70
2019-05-04T14:26:31.529Z,99.90
2019-05-04T14:29:01.095Z,98.90
2019-05-04T14:31:30.978Z,99.50
2019-05-04T14:33:57.529Z,99.90
2019-05-04T14:36:29.848Z,99.00
2019-05-04T14:39:05.094Z,99.90
2019-05-04T14:41:31.828Z,99.90
2019-05-04T14:44:18.000Z,99.90
2019-05-04T14:46:48.295Z,99.90
2019-05-04T14:49:15.101Z,99.90
2019-05-04T14:54:28.135Z,99.90
2019-05-04T14:56:55.396Z,99.90
2019-05-04T14:59:25.104Z,99.90
2019-05-04T15:01:50.552Z,99.90
2019-05-04T15:04:18.978Z,99.90
2019-05-04T15:06:45.696Z,99.90
2019-05-04T15:09:17.042Z,99.90
2019-05-04T15:11:45.320Z,99.90
2019-05-04T15:14:15.645Z,99.90
2019-05-04T15:16:49.137Z,99.90
2019-05-04T15:19:19.843Z,99.90
2019-05-04T15:21:47.364Z,99.90
2019-05-04T15:24:15.833Z,99.90
2019-05-04T15:26:44.622Z,99.90
2019-05-04T15:29:11.215Z,99.90
2019-05-04T15:31:39.792Z,99.90
2019-05-04T15:34:10.222Z,99.90
2019-05-04T15:36:38.707Z,99.90
2019-05-04T15:39:14.903Z,99.90
2019-05-04T15:41:44.389Z,99.90
2019-05-04T15:44:11.135Z,99.90
2019-05-04T15:46:44.289Z,99.90
2019-05-04T15:49:12.511Z,99.90
2019-05-04T15:51:59.740Z,99.90
2019-05-04T15:54:31.050Z,99.90
2019-05-04T15:57:01.310Z,99.90
2019-05-04T15:59:29.787Z,99.90
2019-05-04T16:02:04.248Z,99.90
2019-05-04T16:04:30.471Z,99.90
2019-05-04T16:06:57.237Z,99.90
2019-05-04T16:09:27.863Z,99.90
2019-05-04T16:11:55.927Z,99.90
2019-05-04T16:14:22.774Z,99.90
2019-05-04T16:16:49.407Z,99.90
2019-05-04T16:19:16.304Z,99.90
2019-05-04T16:21:44.743Z,99.90
2019-05-04T16:24:16.335Z,99.90
2019-05-04T16:26:41.996Z,99.90
2019-05-04T16:29:10.586Z,99.90
2019-05-04T16:31:39.238Z,99.90
2019-05-04T16:34:05.838Z,99.90
2019-05-04T16:36:35.763Z,99.90
2019-05-04T16:39:05.328Z,99.90
2019-05-04T16:41:41.845Z,99.90
2019-05-04T16:44:13.540Z,99.50
2019-05-04T16:46:44.597Z,99.90
2019-05-04T16:49:17.409Z,99.70
2019-05-04T16:51:54.874Z,98.80
2019-05-04T16:54:24.169Z,98.60
2019-05-04T16:56:59.150Z,99.10
2019-05-04T16:59:27.885Z,98.90
2019-05-04T17:01:55.941Z,98.90
2019-05-04T17:04:35.083Z,98.90
2019-05-04T17:07:01.089Z,98.90
2019-05-04T17:09:27.157Z,99.20
2019-05-04T17:11:55.426Z,99.00
2019-05-04T17:14:21.355Z,99.60
2019-05-04T17:16:47.537Z,99.70
2019-05-04T17:19:18.146Z,99.90
2019-05-04T17:21:44.523Z,99.60
2019-05-04T17:24:10.724Z,99.90
2019-05-04T17:26:47.843Z,99.90
2019-05-04T17:29:15.098Z,99.90
2019-05-04T17:31:41.467Z,99.90
2019-05-04T17:34:07.829Z,99.90
2019-05-04T17:36:34.300Z,99.90
2019-05-04T17:39:00.661Z,99.90
2019-05-04T17:41:45.071Z,99.90
2019-05-04T17:44:15.538Z,99.90
2019-05-04T17:46:44.117Z,99.90
2019-05-04T17:49:12.398Z,99.90
2019-05-04T17:51:38.308Z,99.90
2019-05-04T17:54:04.673Z,99.90
2019-05-04T17:56:31.264Z,99.70
2019-05-04T17:58:57.339Z,99.90
2019-05-04T18:01:31.517Z,99.90
2019-05-04T18:04:11.689Z,99.90
2019-05-04T18:06:37.853Z,99.90
2019-05-04T18:09:06.229Z,99.80
2019-05-04T18:11:36.945Z,99.90
2019-05-04T18:14:27.667Z,99.90
2019-05-04T18:17:04.279Z,99.70
2019-05-04T18:19:30.332Z,99.80
2019-05-04T18:21:56.529Z,99.90
2019-05-04T18:24:24.299Z,99.90
2019-05-04T18:26:50.635Z,99.50
2019-05-04T18:29:16.788Z,99.80
2019-05-04T18:31:44.291Z,99.50
2019-05-04T18:34:10.653Z,99.40
2019-05-04T18:36:36.819Z,99.10
2019-05-04T18:39:06.699Z,99.30
2019-05-04T18:41:35.216Z,99.60
2019-05-04T18:44:04.694Z,99.30
2019-05-04T18:46:36.145Z,99.50
2019-05-04T18:49:05.222Z,99.30
2019-05-04T18:51:31.402Z,99.40
2019-05-04T18:53:57.464Z,99.50
2019-05-04T18:56:25.207Z,99.60
2019-05-04T18:58:51.848Z,99.30
2019-05-04T19:01:18.220Z,99.40
2019-05-04T19:03:44.740Z,99.60
2019-05-04T19:06:13.061Z,99.70
2019-05-04T19:08:45.302Z,99.60
2019-05-04T19:11:11.502Z,99.60
2019-05-04T19:13:37.612Z,99.60
2019-05-04T19:16:05.331Z,99.30
2019-05-04T19:18:31.554Z,99.60
2019-05-04T19:20:57.617Z,99.50
2019-05-04T19:23:24.587Z,99.50
2019-05-04T19:25:52.561Z,99.70
2019-05-04T19:28:18.672Z,99.90
2019-05-04T19:30:45.572Z,99.50
2019-05-04T19:33:11.913Z,99.70
2019-05-04T19:35:38.575Z,99.80
2019-05-04T19:38:05.404Z,99.60
2019-05-04T19:40:37.117Z,99.50
2019-05-04T19:43:05.193Z,99.50
2019-05-04T19:45:35.235Z,99.90
2019-05-04T19:48:02.017Z,99.90
2019-05-04T19:50:28.143Z,99.20
2019-05-04T19:52:54.225Z,99.20
2019-05-04T19:55:20.284Z,99.80
2019-05-04T19:57:46.355Z,99.20
2019-05-04T20:00:16.275Z,99.80
2019-05-04T20:02:42.339Z,99.60
2019-05-04T20:05:08.846Z,99.70
2019-05-04T20:07:44.449Z,99.90
2019-05-04T20:10:15.350Z,99.90
2019-05-04T20:12:44.902Z,99.70
2019-05-04T20:15:22.016Z,99.30
2019-05-04T20:17:40.932Z,99.60
2019-05-04T20:20:08.038Z,99.60
2019-05-04T20:22:34.750Z,99.90
2019-05-04T20:25:01.060Z,99.90
2019-05-04T20:27:27.120Z,99.70
2019-05-04T20:29:54.491Z,99.90
2019-05-04T20:32:20.792Z,99.90
2019-05-04T20:34:46.848Z,99.90
2019-05-04T20:37:12.899Z,99.90
2019-05-04T20:39:39.080Z,99.90
2019-05-04T20:42:05.284Z,99.60
2019-05-04T20:44:34.298Z,99.80
2019-05-04T20:47:08.400Z,99.90
2019-05-04T20:49:39.133Z,99.40
2019-05-04T20:52:05.206Z,99.70
2019-05-04T20:54:31.279Z,99.90
2019-05-04T20:56:57.453Z,99.90
2019-05-04T20:59:25.208Z,99.40
2019-05-04T21:01:55.251Z,99.10
2019-05-04T21:04:29.090Z,99.20
2019-05-04T21:06:57.066Z,99.10
2019-05-04T21:09:24.408Z,98.70
2019-05-04T21:11:50.681Z,99.30
2019-05-04T21:14:16.753Z,98.80
2019-05-04T21:16:45.256Z,98.20
2019-05-04T21:19:16.423Z,98.30
2019-05-04T21:21:44.376Z,97.90
2019-05-04T21:24:10.445Z,98.30
2019-05-04T21:26:36.545Z,98.40
2019-05-04T21:29:04.391Z,98.50
2019-05-04T21:31:30.783Z,98.10
2019-05-04T21:33:56.887Z,98.50
2019-05-04T21:36:25.273Z,98.60
2019-05-04T21:38:51.296Z,99.10
2019-05-04T21:41:17.360Z,99.10
2019-05-04T21:43:45.333Z,99.40
2019-05-04T21:46:19.262Z,99.20
2019-05-04T21:48:50.186Z,99.20
2019-05-04T21:51:18.203Z,99.10
2019-05-04T21:53:44.816Z,99.00
2019-05-04T21:56:11.158Z,99.00
2019-05-04T21:58:37.383Z,99.30
2019-05-04T22:01:08.346Z,99.30
2019-05-04T22:03:36.337Z,99.10
2019-05-04T22:06:02.503Z,98.90
2019-05-04T22:08:28.627Z,99.30
2019-05-04T22:10:55.255Z,99.10
2019-05-04T22:13:21.942Z,98.80
2019-05-04T22:15:48.502Z,99.10
2019-05-04T22:18:16.335Z,99.10
2019-05-04T22:20:42.859Z,98.90
2019-05-04T22:23:08.948Z,98.90
2019-05-04T22:25:35.657Z,98.80
2019-05-04T22:28:01.865Z,99.00
2019-05-04T22:30:27.949Z,99.10
2019-05-04T22:32:54.598Z,99.10
2019-05-04T22:35:20.763Z,98.80
2019-05-04T22:38:00.928Z,98.50
2019-05-04T22:40:26.992Z,98.50
2019-05-04T22:42:54.371Z,98.60
2019-05-04T22:45:20.645Z,98.60
2019-05-04T22:47:46.705Z,99.00
2019-05-04T22:50:14.980Z,98.60
2019-05-04T22:52:46.036Z,98.40
2019-05-04T22:55:16.947Z,98.40
2019-05-04T22:57:44.908Z,98.20
2019-05-04T23:00:29.983Z,98.20
2019-05-04T23:02:56.310Z,98.20
2019-05-04T23:05:24.922Z,98.10
2019-05-04T23:07:50.514Z,98.40
2019-05-04T23:10:16.702Z,98.50
2019-05-04T23:12:45.876Z,98.30
2019-05-04T23:15:10.940Z,98.40
2019-05-04T23:17:37.031Z,98.40
2019-05-04T23:20:05.271Z,98.10
2019-05-04T23:22:42.336Z,97.90
2019-05-04T23:25:08.597Z,97.90
2019-05-04T23:27:35.334Z,97.80
2019-05-04T23:30:03.476Z,97.70
2019-05-04T23:32:29.543Z,97.60
2019-05-04T23:34:55.715Z,97.80
2019-05-04T23:37:21.807Z,97.80
2019-05-04T23:39:47.955Z,97.50
2019-05-04T23:42:14.988Z,97.40
2019-05-04T23:44:41.205Z,97.20
2019-05-04T23:47:09.292Z,96.90
2019-05-04T23:49:35.376Z,97.00
2019-05-04T23:52:01.448Z,97.20
2019-05-04T23:54:27.511Z,97.40
2019-05-04T23:56:54.437Z,97.30
2019-05-04T23:59:20.639Z,96.90
